sensor_id;sensor_type;location;lat;lon;timestamp;temperature;humidity
2202;DHT22;1107;48.654;9.250;2023-03-15T00:02:12;3.00;1.00
2202;DHT22;1107;48.654;9.250;2023-03-15T00:04:39;2.90;1.00
2202;DHT22;1107;48.654;9.250;2023-03-15T00:07:06;2.90;1.00
2202;DHT22;1107;48.654;9.250;2023-03-15T00:09:33;2.90;1.00
2202;DHT22;1107;48.654;9.250;2023-03-15T00:12:01;3.00;1.00
2202;DHT22;1107;48.654;9.250;2023-03-15T00:14:28;3.00;1.00
2202;DHT22;1107;48.654;9.250;2023-03-15T00:16:55;3.00;1.00
2202;DHT22;1107;48.654;9.250;2023-03-15T00:19:22;3.00;1.00
2202;DHT22;1107;48.654;9.250;2023-03-15T00:21:49;3.10;1.00
2202;DHT22;1107;48.654;9.250;2023-03-15T00:24:16;3.10;1.00
2202;DHT22;1107;48.654;9.250;2023-03-15T00:26:42;3.20;1.00
2202;DHT22;1107;48.654;9.250;2023-03-15T00:29:10;3.20;1.00
2202;DHT22;1107;48.654;9.250;2023-03-15T00:31:37;3.30;1.00
2202;DHT22;1107;48.654;9.250;2023-03-15T00:34:04;3.20;1.00
2202;DHT22;1107;48.654;9.250;2023-03-15T00:36:31;3.20;1.00
2202;DHT22;1107;48.654;9.250;2023-03-15T00:38:57;3.20;1.00
2202;DHT22;1107;48.654;9.250;2023-03-15T00:41:24;3.10;1.00
2202;DHT22;1107;48.654;9.250;2023-03-15T00:43:51;3.10;1.00
2202;DHT22;1107;48.654;9.250;2023-03-15T00:46:19;3.10;1.00
2202;DHT22;1107;48.654;9.250;2023-03-15T00:48:46;3.20;1.00
2202;DHT22;1107;48.654;9.250;2023-03-15T00:51:14;3.30;1.00
2202;DHT22;1107;48.654;9.250;2023-03-15T00:53:41;3.30;1.00
2202;DHT22;1107;48.654;9.250;2023-03-15T00:56:09;3.30;1.00
2202;DHT22;1107;48.654;9.250;2023-03-15T00:58:36;3.30;1.00
2202;DHT22;1107;48.654;9.250;2023-03-15T01:01:04;3.40;99.90
2202;DHT22;1107;48.654;9.250;2023-03-15T01:03:32;3.50;99.90
2202;DHT22;1107;48.654;9.250;2023-03-15T01:06:03;3.30;99.90
2202;DHT22;1107;48.654;9.250;2023-03-15T01:08:29;3.40;99.90
2202;DHT22;1107;48.654;9.250;2023-03-15T01:11:00;3.40;99.90
2202;DHT22;1107;48.654;9.250;2023-03-15T01:13:26;3.30;99.90
2202;DHT22;1107;48.654;9.250;2023-03-15T01:15:53;3.30;99.90
2202;DHT22;1107;48.654;9.250;2023-03-15T01:18:20;3.30;99.90
2202;DHT22;1107;48.654;9.250;2023-03-15T01:20:48;3.30;1.00
2202;DHT22;1107;48.654;9.250;2023-03-15T01:23:15;3.30;99.90
2202;DHT22;1107;48.654;9.250;2023-03-15T01:25:41;3.30;99.90
2202;DHT22;1107;48.654;9.250;2023-03-15T01:28:08;3.20;21.80
2202;DHT22;1107;48.654;9.250;2023-03-15T01:30:35;3.20;99.90
2202;DHT22;1107;48.654;9.250;2023-03-15T01:33:02;3.10;99.90
2202;DHT22;1107;48.654;9.250;2023-03-15T01:35:29;3.10;1.00
2202;DHT22;1107;48.654;9.250;2023-03-15T01:37:57;3.10;1.00
2202;DHT22;1107;48.654;9.250;2023-03-15T01:40:23;3.00;1.00
2202;DHT22;1107;48.654;9.250;2023-03-15T01:42:51;2.90;1.00
2202;DHT22;1107;48.654;9.250;2023-03-15T01:48:03;2.70;92.60
2202;DHT22;1107;48.654;9.250;2023-03-15T01:50:30;2.60;99.50
2202;DHT22;1107;48.654;9.250;2023-03-15T01:52:58;2.50;21.50
2202;DHT22;1107;48.654;9.250;2023-03-15T01:55:25;2.50;98.90
2202;DHT22;1107;48.654;9.250;2023-03-15T01:57:52;2.40;99.90
2202;DHT22;1107;48.654;9.250;2023-03-15T02:00:21;2.40;99.90
2202;DHT22;1107;48.654;9.250;2023-03-15T02:02:48;2.30;1.00
2202;DHT22;1107;48.654;9.250;2023-03-15T02:05:16;2.20;99.90
2202;DHT22;1107;48.654;9.250;2023-03-15T02:07:44;2.20;99.90
2202;DHT22;1107;48.654;9.250;2023-03-15T02:10:16;2.20;99.90
2202;DHT22;1107;48.654;9.250;2023-03-15T02:12:44;2.10;99.90
2202;DHT22;1107;48.654;9.250;2023-03-15T02:15:12;2.00;3.50
2202;DHT22;1107;48.654;9.250;2023-03-15T02:17:39;2.00;1.00
2202;DHT22;1107;48.654;9.250;2023-03-15T02:20:10;2.00;99.90
2202;DHT22;1107;48.654;9.250;2023-03-15T02:22:39;1.90;99.90
2202;DHT22;1107;48.654;9.250;2023-03-15T02:25:09;2.00;1.00
2202;DHT22;1107;48.654;9.250;2023-03-15T02:27:42;2.00;1.00
2202;DHT22;1107;48.654;9.250;2023-03-15T02:30:10;1.90;99.90
2202;DHT22;1107;48.654;9.250;2023-03-15T02:32:37;1.90;1.00
2202;DHT22;1107;48.654;9.250;2023-03-15T02:35:04;1.90;1.00
2202;DHT22;1107;48.654;9.250;2023-03-15T02:37:31;1.80;1.00
2202;DHT22;1107;48.654;9.250;2023-03-15T02:39:57;1.80;1.00
2202;DHT22;1107;48.654;9.250;2023-03-15T02:42:24;1.70;1.00
2202;DHT22;1107;48.654;9.250;2023-03-15T02:44:53;1.70;1.00
2202;DHT22;1107;48.654;9.250;2023-03-15T02:47:20;1.70;1.00
2202;DHT22;1107;48.654;9.250;2023-03-15T02:49:49;1.60;1.00
2202;DHT22;1107;48.654;9.250;2023-03-15T02:52:16;1.60;1.00
2202;DHT22;1107;48.654;9.250;2023-03-15T02:54:43;1.50;1.00
2202;DHT22;1107;48.654;9.250;2023-03-15T02:57:09;1.50;1.00
2202;DHT22;1107;48.654;9.250;2023-03-15T02:59:36;1.40;1.00
2202;DHT22;1107;48.654;9.250;2023-03-15T03:02:04;1.40;1.00
2202;DHT22;1107;48.654;9.250;2023-03-15T03:04:32;1.30;1.00
2202;DHT22;1107;48.654;9.250;2023-03-15T03:06:58;1.30;1.00
2202;DHT22;1107;48.654;9.250;2023-03-15T03:09:25;1.30;1.00
2202;DHT22;1107;48.654;9.250;2023-03-15T03:11:52;1.30;1.00
2202;DHT22;1107;48.654;9.250;2023-03-15T03:14:19;1.30;1.00
2202;DHT22;1107;48.654;9.250;2023-03-15T03:16:48;1.30;1.00
2202;DHT22;1107;48.654;9.250;2023-03-15T03:19:16;1.40;1.00
2202;DHT22;1107;48.654;9.250;2023-03-15T03:21:43;1.30;1.00
2202;DHT22;1107;48.654;9.250;2023-03-15T03:24:09;1.20;1.00
2202;DHT22;1107;48.654;9.250;2023-03-15T03:26:40;1.20;1.00
2202;DHT22;1107;48.654;9.250;2023-03-15T03:29:10;1.10;1.00
2202;DHT22;1107;48.654;9.250;2023-03-15T03:31:41;1.00;1.00
2202;DHT22;1107;48.654;9.250;2023-03-15T03:34:07;1.10;1.00
2202;DHT22;1107;48.654;9.250;2023-03-15T03:36:36;1.00;1.00
2202;DHT22;1107;48.654;9.250;2023-03-15T03:39:03;1.00;1.00
2202;DHT22;1107;48.654;9.250;2023-03-15T03:41:30;1.00;1.00
2202;DHT22;1107;48.654;9.250;2023-03-15T03:43:56;1.10;1.00
2202;DHT22;1107;48.654;9.250;2023-03-15T03:46:24;0.90;1.00
2202;DHT22;1107;48.654;9.250;2023-03-15T03:48:52;0.90;1.00
2202;DHT22;1107;48.654;9.250;2023-03-15T03:51:19;0.90;1.00
2202;DHT22;1107;48.654;9.250;2023-03-15T03:53:47;1.00;1.00
2202;DHT22;1107;48.654;9.250;2023-03-15T03:56:14;0.90;1.00
2202;DHT22;1107;48.654;9.250;2023-03-15T03:58:41;0.90;1.00
2202;DHT22;1107;48.654;9.250;2023-03-15T04:01:07;0.90;1.00
2202;DHT22;1107;48.654;9.250;2023-03-15T04:03:34;0.90;1.00
2202;DHT22;1107;48.654;9.250;2023-03-15T04:06:01;0.90;99.90
2202;DHT22;1107;48.654;9.250;2023-03-15T04:08:29;0.90;99.90
2202;DHT22;1107;48.654;9.250;2023-03-15T04:10:57;1.00;99.90
2202;DHT22;1107;48.654;9.250;2023-03-15T04:13:28;0.90;1.00
2202;DHT22;1107;48.654;9.250;2023-03-15T04:15:55;0.90;1.00
2202;DHT22;1107;48.654;9.250;2023-03-15T04:18:22;1.00;1.00
2202;DHT22;1107;48.654;9.250;2023-03-15T04:20:49;1.10;99.90
2202;DHT22;1107;48.654;9.250;2023-03-15T04:23:19;1.00;1.00
2202;DHT22;1107;48.654;9.250;2023-03-15T04:25:47;1.00;1.00
2202;DHT22;1107;48.654;9.250;2023-03-15T04:28:15;1.00;99.90
2202;DHT22;1107;48.654;9.250;2023-03-15T04:30:42;0.90;1.00
2202;DHT22;1107;48.654;9.250;2023-03-15T04:33:08;0.90;1.00
2202;DHT22;1107;48.654;9.250;2023-03-15T04:35:36;0.90;99.90
2202;DHT22;1107;48.654;9.250;2023-03-15T04:38:03;0.90;1.00
2202;DHT22;1107;48.654;9.250;2023-03-15T04:40:30;0.90;1.00
2202;DHT22;1107;48.654;9.250;2023-03-15T04:42:59;0.90;1.00
2202;DHT22;1107;48.654;9.250;2023-03-15T04:45:28;0.90;1.00
2202;DHT22;1107;48.654;9.250;2023-03-15T04:47:55;0.90;1.00
2202;DHT22;1107;48.654;9.250;2023-03-15T04:50:23;0.80;1.00
2202;DHT22;1107;48.654;9.250;2023-03-15T04:52:50;0.80;1.00
2202;DHT22;1107;48.654;9.250;2023-03-15T04:55:17;0.80;35.00
2202;DHT22;1107;48.654;9.250;2023-03-15T04:57:43;0.80;99.90
2202;DHT22;1107;48.654;9.250;2023-03-15T05:00:10;0.80;99.90
2202;DHT22;1107;48.654;9.250;2023-03-15T05:02:40;0.70;1.00
2202;DHT22;1107;48.654;9.250;2023-03-15T05:05:07;0.80;1.00
2202;DHT22;1107;48.654;9.250;2023-03-15T05:07:34;0.70;99.90
2202;DHT22;1107;48.654;9.250;2023-03-15T05:10:01;0.70;49.10
2202;DHT22;1107;48.654;9.250;2023-03-15T05:12:29;0.70;1.00
2202;DHT22;1107;48.654;9.250;2023-03-15T05:14:56;0.70;1.00
2202;DHT22;1107;48.654;9.250;2023-03-15T05:17:23;0.70;1.00
2202;DHT22;1107;48.654;9.250;2023-03-15T05:19:51;0.70;1.00
2202;DHT22;1107;48.654;9.250;2023-03-15T05:22:17;0.80;1.00
2202;DHT22;1107;48.654;9.250;2023-03-15T05:24:50;0.60;1.00
2202;DHT22;1107;48.654;9.250;2023-03-15T05:27:18;0.60;1.00
2202;DHT22;1107;48.654;9.250;2023-03-15T05:29:45;0.70;1.00
2202;DHT22;1107;48.654;9.250;2023-03-15T05:32:11;0.70;99.90
2202;DHT22;1107;48.654;9.250;2023-03-15T05:34:38;0.60;1.00
2202;DHT22;1107;48.654;9.250;2023-03-15T05:37:08;0.70;1.00
2202;DHT22;1107;48.654;9.250;2023-03-15T05:39:36;0.70;99.90
2202;DHT22;1107;48.654;9.250;2023-03-15T05:42:03;0.70;99.90
2202;DHT22;1107;48.654;9.250;2023-03-15T05:44:30;0.70;99.90
2202;DHT22;1107;48.654;9.250;2023-03-15T05:46:57;0.60;99.90
2202;DHT22;1107;48.654;9.250;2023-03-15T05:49:23;0.70;1.00
2202;DHT22;1107;48.654;9.250;2023-03-15T05:51:50;0.70;1.00
2202;DHT22;1107;48.654;9.250;2023-03-15T05:54:18;0.70;1.00
2202;DHT22;1107;48.654;9.250;2023-03-15T05:56:46;0.70;99.90
2202;DHT22;1107;48.654;9.250;2023-03-15T05:59:13;0.90;99.90
2202;DHT22;1107;48.654;9.250;2023-03-15T06:01:39;1.30;99.90
2202;DHT22;1107;48.654;9.250;2023-03-15T06:04:06;1.40;1.00
2202;DHT22;1107;48.654;9.250;2023-03-15T06:06:33;1.60;1.00
2202;DHT22;1107;48.654;9.250;2023-03-15T06:09:00;1.80;99.90
2202;DHT22;1107;48.654;9.250;2023-03-15T06:11:28;1.90;1.00
2202;DHT22;1107;48.654;9.250;2023-03-15T06:13:54;2.10;1.00
2202;DHT22;1107;48.654;9.250;2023-03-15T06:16:21;2.40;1.00
2202;DHT22;1107;48.654;9.250;2023-03-15T06:18:48;2.60;1.00
2202;DHT22;1107;48.654;9.250;2023-03-15T06:21:15;2.80;1.00
2202;DHT22;1107;48.654;9.250;2023-03-15T06:23:42;3.10;99.90
2202;DHT22;1107;48.654;9.250;2023-03-15T06:26:08;3.40;99.90
2202;DHT22;1107;48.654;9.250;2023-03-15T06:28:36;3.80;99.90
2202;DHT22;1107;48.654;9.250;2023-03-15T06:31:05;3.90;57.10
2202;DHT22;1107;48.654;9.250;2023-03-15T06:33:32;4.10;1.00
2202;DHT22;1107;48.654;9.250;2023-03-15T06:35:59;4.40;1.00
2202;DHT22;1107;48.654;9.250;2023-03-15T06:38:26;4.60;1.00
2202;DHT22;1107;48.654;9.250;2023-03-15T06:40:52;4.90;1.00
2202;DHT22;1107;48.654;9.250;2023-03-15T06:43:22;5.00;1.00
2202;DHT22;1107;48.654;9.250;2023-03-15T06:45:50;5.20;1.00
2202;DHT22;1107;48.654;9.250;2023-03-15T06:48:20;5.50;1.00
2202;DHT22;1107;48.654;9.250;2023-03-15T06:50:47;5.60;1.00
2202;DHT22;1107;48.654;9.250;2023-03-15T06:53:14;5.50;1.00
2202;DHT22;1107;48.654;9.250;2023-03-15T06:55:40;5.60;1.00
2202;DHT22;1107;48.654;9.250;2023-03-15T06:58:07;5.30;1.00
2202;DHT22;1107;48.654;9.250;2023-03-15T07:00:34;5.50;1.00
2202;DHT22;1107;48.654;9.250;2023-03-15T07:03:02;5.40;1.00
2202;DHT22;1107;48.654;9.250;2023-03-15T07:05:29;5.10;1.00
2202;DHT22;1107;48.654;9.250;2023-03-15T07:07:55;5.10;1.00
2202;DHT22;1107;48.654;9.250;2023-03-15T07:10:22;5.20;1.00
2202;DHT22;1107;48.654;9.250;2023-03-15T07:12:49;5.10;1.00
2202;DHT22;1107;48.654;9.250;2023-03-15T07:15:16;5.00;1.00
2202;DHT22;1107;48.654;9.250;2023-03-15T07:17:42;5.00;1.00
2202;DHT22;1107;48.654;9.250;2023-03-15T07:20:11;4.90;1.00
2202;DHT22;1107;48.654;9.250;2023-03-15T07:22:38;4.50;1.00
2202;DHT22;1107;48.654;9.250;2023-03-15T07:25:05;4.70;1.00
2202;DHT22;1107;48.654;9.250;2023-03-15T07:27:33;5.10;1.00
2202;DHT22;1107;48.654;9.250;2023-03-15T07:30:00;5.00;1.00
2202;DHT22;1107;48.654;9.250;2023-03-15T07:32:27;5.10;1.00
2202;DHT22;1107;48.654;9.250;2023-03-15T07:34:55;5.20;1.00
2202;DHT22;1107;48.654;9.250;2023-03-15T07:37:26;5.10;1.00
2202;DHT22;1107;48.654;9.250;2023-03-15T07:39:53;5.70;1.00
2202;DHT22;1107;48.654;9.250;2023-03-15T07:42:20;6.00;1.00
2202;DHT22;1107;48.654;9.250;2023-03-15T07:44:47;6.20;1.00
2202;DHT22;1107;48.654;9.250;2023-03-15T07:47:13;6.20;1.00
2202;DHT22;1107;48.654;9.250;2023-03-15T07:49:40;6.60;1.00
2202;DHT22;1107;48.654;9.250;2023-03-15T07:52:07;6.60;1.00
2202;DHT22;1107;48.654;9.250;2023-03-15T07:54:35;6.60;1.00
2202;DHT22;1107;48.654;9.250;2023-03-15T07:57:02;6.90;1.00
2202;DHT22;1107;48.654;9.250;2023-03-15T07:59:29;7.40;1.00
2202;DHT22;1107;48.654;9.250;2023-03-15T08:01:56;7.60;1.00
2202;DHT22;1107;48.654;9.250;2023-03-15T08:04:22;7.90;1.00
2202;DHT22;1107;48.654;9.250;2023-03-15T08:06:49;8.10;99.90
2202;DHT22;1107;48.654;9.250;2023-03-15T08:09:16;8.00;99.90
2202;DHT22;1107;48.654;9.250;2023-03-15T08:11:44;8.30;99.90
2202;DHT22;1107;48.654;9.250;2023-03-15T08:14:11;8.40;99.90
2202;DHT22;1107;48.654;9.250;2023-03-15T08:16:37;8.80;99.90
2202;DHT22;1107;48.654;9.250;2023-03-15T08:19:04;8.80;99.90
2202;DHT22;1107;48.654;9.250;2023-03-15T08:21:31;7.90;99.90
2202;DHT22;1107;48.654;9.250;2023-03-15T08:23:58;7.60;99.90
2202;DHT22;1107;48.654;9.250;2023-03-15T08:26:25;7.20;99.90
2202;DHT22;1107;48.654;9.250;2023-03-15T08:28:53;7.70;99.90
2202;DHT22;1107;48.654;9.250;2023-03-15T08:31:20;7.60;99.90
2202;DHT22;1107;48.654;9.250;2023-03-15T08:33:46;8.30;99.90
2202;DHT22;1107;48.654;9.250;2023-03-15T08:36:13;9.00;99.90
2202;DHT22;1107;48.654;9.250;2023-03-15T08:38:40;8.60;99.90
2202;DHT22;1107;48.654;9.250;2023-03-15T08:41:07;8.80;99.90
2202;DHT22;1107;48.654;9.250;2023-03-15T08:43:34;8.30;99.90
2202;DHT22;1107;48.654;9.250;2023-03-15T08:46:02;9.20;99.90
2202;DHT22;1107;48.654;9.250;2023-03-15T08:48:29;9.90;99.90
2202;DHT22;1107;48.654;9.250;2023-03-15T08:51:01;9.50;99.90
2202;DHT22;1107;48.654;9.250;2023-03-15T08:53:28;8.70;99.90
2202;DHT22;1107;48.654;9.250;2023-03-15T08:55:55;8.40;99.90
2202;DHT22;1107;48.654;9.250;2023-03-15T08:58:22;9.00;99.90
2202;DHT22;1107;48.654;9.250;2023-03-15T09:00:50;8.80;99.90
2202;DHT22;1107;48.654;9.250;2023-03-15T09:03:19;10.00;99.90
2202;DHT22;1107;48.654;9.250;2023-03-15T09:05:47;10.20;99.90
2202;DHT22;1107;48.654;9.250;2023-03-15T09:08:14;9.70;99.90
2202;DHT22;1107;48.654;9.250;2023-03-15T09:10:45;8.30;99.90
2202;DHT22;1107;48.654;9.250;2023-03-15T09:13:12;9.60;99.90
2202;DHT22;1107;48.654;9.250;2023-03-15T09:15:38;10.10;99.90
2202;DHT22;1107;48.654;9.250;2023-03-15T09:18:05;9.80;99.90
2202;DHT22;1107;48.654;9.250;2023-03-15T09:20:34;9.90;99.90
2202;DHT22;1107;48.654;9.250;2023-03-15T09:23:00;10.00;99.90
2202;DHT22;1107;48.654;9.250;2023-03-15T09:25:27;8.80;99.90
2202;DHT22;1107;48.654;9.250;2023-03-15T09:27:54;8.50;99.90
2202;DHT22;1107;48.654;9.250;2023-03-15T09:30:21;8.50;99.90
2202;DHT22;1107;48.654;9.250;2023-03-15T09:32:48;8.40;99.90
2202;DHT22;1107;48.654;9.250;2023-03-15T09:35:17;8.80;99.90
2202;DHT22;1107;48.654;9.250;2023-03-15T09:37:45;8.10;99.90
2202;DHT22;1107;48.654;9.250;2023-03-15T09:40:17;7.90;99.90
2202;DHT22;1107;48.654;9.250;2023-03-15T09:42:55;7.60;99.90
2202;DHT22;1107;48.654;9.250;2023-03-15T09:45:31;7.40;99.90
2202;DHT22;1107;48.654;9.250;2023-03-15T09:48:02;7.10;99.90
2202;DHT22;1107;48.654;9.250;2023-03-15T09:50:32;6.70;99.90
2202;DHT22;1107;48.654;9.250;2023-03-15T09:53:09;6.70;99.90
2202;DHT22;1107;48.654;9.250;2023-03-15T09:55:38;6.70;99.90
2202;DHT22;1107;48.654;9.250;2023-03-15T09:58:10;6.50;99.90
2202;DHT22;1107;48.654;9.250;2023-03-15T10:00:42;6.40;99.90
2202;DHT22;1107;48.654;9.250;2023-03-15T10:03:17;6.30;99.90
2202;DHT22;1107;48.654;9.250;2023-03-15T10:05:48;6.20;99.90
2202;DHT22;1107;48.654;9.250;2023-03-15T10:08:19;6.10;99.90
2202;DHT22;1107;48.654;9.250;2023-03-15T10:10:50;5.90;99.90
2202;DHT22;1107;48.654;9.250;2023-03-15T10:13:28;5.90;99.90
2202;DHT22;1107;48.654;9.250;2023-03-15T10:16:08;6.00;99.90
2202;DHT22;1107;48.654;9.250;2023-03-15T10:18:51;6.00;99.90
2202;DHT22;1107;48.654;9.250;2023-03-15T10:21:29;6.00;99.90
2202;DHT22;1107;48.654;9.250;2023-03-15T10:23:59;6.00;99.90
2202;DHT22;1107;48.654;9.250;2023-03-15T10:26:33;6.10;99.90
2202;DHT22;1107;48.654;9.250;2023-03-15T10:29:09;6.20;99.90
2202;DHT22;1107;48.654;9.250;2023-03-15T10:31:38;6.20;99.90
2202;DHT22;1107;48.654;9.250;2023-03-15T10:34:08;6.40;99.90
2202;DHT22;1107;48.654;9.250;2023-03-15T10:36:36;6.50;99.90
2202;DHT22;1107;48.654;9.250;2023-03-15T10:39:04;6.60;99.90
2202;DHT22;1107;48.654;9.250;2023-03-15T10:41:37;6.50;99.90
2202;DHT22;1107;48.654;9.250;2023-03-15T10:44:05;7.00;99.90
2202;DHT22;1107;48.654;9.250;2023-03-15T10:46:32;7.50;99.90
2202;DHT22;1107;48.654;9.250;2023-03-15T10:49:08;7.60;99.90
2202;DHT22;1107;48.654;9.250;2023-03-15T10:51:38;7.70;99.90
2202;DHT22;1107;48.654;9.250;2023-03-15T10:54:12;8.20;99.90
2202;DHT22;1107;48.654;9.250;2023-03-15T10:56:45;8.10;99.90
2202;DHT22;1107;48.654;9.250;2023-03-15T10:59:18;8.50;99.90
2202;DHT22;1107;48.654;9.250;2023-03-15T11:01:46;9.30;99.90
2202;DHT22;1107;48.654;9.250;2023-03-15T11:04:17;9.90;99.90
2202;DHT22;1107;48.654;9.250;2023-03-15T11:06:47;10.60;99.90
2202;DHT22;1107;48.654;9.250;2023-03-15T11:09:17;10.30;99.90
2202;DHT22;1107;48.654;9.250;2023-03-15T11:11:56;10.40;99.90
2202;DHT22;1107;48.654;9.250;2023-03-15T11:14:24;10.30;99.90
2202;DHT22;1107;48.654;9.250;2023-03-15T11:16:53;12.30;99.90
2202;DHT22;1107;48.654;9.250;2023-03-15T11:19:24;12.80;99.90
2202;DHT22;1107;48.654;9.250;2023-03-15T11:21:53;11.80;99.90
2202;DHT22;1107;48.654;9.250;2023-03-15T11:24:25;11.00;99.90
2202;DHT22;1107;48.654;9.250;2023-03-15T11:26:54;10.40;99.90
2202;DHT22;1107;48.654;9.250;2023-03-15T11:29:24;9.50;99.90
2202;DHT22;1107;48.654;9.250;2023-03-15T11:31:53;8.70;99.90
2202;DHT22;1107;48.654;9.250;2023-03-15T11:34:25;8.50;99.90
2202;DHT22;1107;48.654;9.250;2023-03-15T11:36:55;8.50;99.90
2202;DHT22;1107;48.654;9.250;2023-03-15T11:39:33;8.10;99.90
2202;DHT22;1107;48.654;9.250;2023-03-15T11:42:05;8.00;99.90
2202;DHT22;1107;48.654;9.250;2023-03-15T11:44:38;8.10;99.90
2202;DHT22;1107;48.654;9.250;2023-03-15T11:47:10;7.80;99.90
2202;DHT22;1107;48.654;9.250;2023-03-15T11:49:45;7.70;99.90
2202;DHT22;1107;48.654;9.250;2023-03-15T11:52:14;7.80;99.90
2202;DHT22;1107;48.654;9.250;2023-03-15T11:54:43;7.50;99.90
2202;DHT22;1107;48.654;9.250;2023-03-15T11:57:42;7.30;99.90
2202;DHT22;1107;48.654;9.250;2023-03-15T12:00:18;7.50;99.90
2202;DHT22;1107;48.654;9.250;2023-03-15T12:02:51;8.00;99.90
2202;DHT22;1107;48.654;9.250;2023-03-15T12:08:15;8.20;99.90
2202;DHT22;1107;48.654;9.250;2023-03-15T12:10:44;7.90;99.90
2202;DHT22;1107;48.654;9.250;2023-03-15T12:13:25;7.40;99.90
2202;DHT22;1107;48.654;9.250;2023-03-15T12:15:52;7.10;99.90
2202;DHT22;1107;48.654;9.250;2023-03-15T12:18:31;6.90;99.90
2202;DHT22;1107;48.654;9.250;2023-03-15T12:21:13;6.80;99.90
2202;DHT22;1107;48.654;9.250;2023-03-15T12:23:44;7.00;99.90
2202;DHT22;1107;48.654;9.250;2023-03-15T12:26:25;7.20;99.90
2202;DHT22;1107;48.654;9.250;2023-03-15T12:29:06;7.50;99.90
2202;DHT22;1107;48.654;9.250;2023-03-15T12:31:53;7.60;99.90
2202;DHT22;1107;48.654;9.250;2023-03-15T12:34:26;8.10;99.90
2202;DHT22;1107;48.654;9.250;2023-03-15T12:36:56;8.50;99.90
2202;DHT22;1107;48.654;9.250;2023-03-15T12:39:50;8.90;99.90
2202;DHT22;1107;48.654;9.250;2023-03-15T12:45:40;9.50;99.90
2202;DHT22;1107;48.654;9.250;2023-03-15T12:48:25;9.50;99.90
2202;DHT22;1107;48.654;9.250;2023-03-15T12:50:57;9.50;99.90
2202;DHT22;1107;48.654;9.250;2023-03-15T12:53:43;9.60;99.90
2202;DHT22;1107;48.654;9.250;2023-03-15T12:56:33;9.70;99.90
2202;DHT22;1107;48.654;9.250;2023-03-15T13:02:17;9.30;99.90
2202;DHT22;1107;48.654;9.250;2023-03-15T13:04:45;9.10;99.90
2202;DHT22;1107;48.654;9.250;2023-03-15T13:07:22;9.00;99.90
2202;DHT22;1107;48.654;9.250;2023-03-15T13:10:15;8.80;99.90
2202;DHT22;1107;48.654;9.250;2023-03-15T13:12:51;8.70;99.90
2202;DHT22;1107;48.654;9.250;2023-03-15T13:15:22;8.60;99.90
2202;DHT22;1107;48.654;9.250;2023-03-15T13:17:57;8.40;99.90
2202;DHT22;1107;48.654;9.250;2023-03-15T13:20:39;8.50;99.90
2202;DHT22;1107;48.654;9.250;2023-03-15T13:23:14;8.30;99.90
2202;DHT22;1107;48.654;9.250;2023-03-15T13:25:50;8.10;99.90
2202;DHT22;1107;48.654;9.250;2023-03-15T13:28:22;8.00;99.90
2202;DHT22;1107;48.654;9.250;2023-03-15T13:30:51;7.90;99.90
2202;DHT22;1107;48.654;9.250;2023-03-15T13:33:22;7.80;99.90
2202;DHT22;1107;48.654;9.250;2023-03-15T13:35:55;7.70;99.90
2202;DHT22;1107;48.654;9.250;2023-03-15T13:38:28;7.80;99.90
2202;DHT22;1107;48.654;9.250;2023-03-15T13:40:57;7.90;99.90
2202;DHT22;1107;48.654;9.250;2023-03-15T13:43:26;7.80;99.90
2202;DHT22;1107;48.654;9.250;2023-03-15T13:45:56;7.90;99.90
2202;DHT22;1107;48.654;9.250;2023-03-15T13:48:27;7.90;99.90
2202;DHT22;1107;48.654;9.250;2023-03-15T13:50:56;8.00;99.90
2202;DHT22;1107;48.654;9.250;2023-03-15T13:53:25;8.00;99.90
2202;DHT22;1107;48.654;9.250;2023-03-15T13:55:53;7.90;99.90
2202;DHT22;1107;48.654;9.250;2023-03-15T13:58:21;7.90;99.90
2202;DHT22;1107;48.654;9.250;2023-03-15T14:00:55;7.80;99.90
2202;DHT22;1107;48.654;9.250;2023-03-15T14:03:23;7.70;99.90
2202;DHT22;1107;48.654;9.250;2023-03-15T14:05:53;7.60;99.90
2202;DHT22;1107;48.654;9.250;2023-03-15T14:08:24;7.40;99.90
2202;DHT22;1107;48.654;9.250;2023-03-15T14:11:03;7.30;99.90
2202;DHT22;1107;48.654;9.250;2023-03-15T14:13:32;7.20;99.90
2202;DHT22;1107;48.654;9.250;2023-03-15T14:16:02;7.00;99.90
2202;DHT22;1107;48.654;9.250;2023-03-15T14:18:31;7.00;99.90
2202;DHT22;1107;48.654;9.250;2023-03-15T14:21:04;7.20;1.00
2202;DHT22;1107;48.654;9.250;2023-03-15T14:23:38;7.60;1.00
2202;DHT22;1107;48.654;9.250;2023-03-15T14:26:12;8.00;99.90
2202;DHT22;1107;48.654;9.250;2023-03-15T14:28:40;8.50;99.90
2202;DHT22;1107;48.654;9.250;2023-03-15T14:31:18;8.70;99.90
2202;DHT22;1107;48.654;9.250;2023-03-15T14:33:52;9.60;99.90
2202;DHT22;1107;48.654;9.250;2023-03-15T14:36:23;10.90;99.90
2202;DHT22;1107;48.654;9.250;2023-03-15T14:38:52;12.90;99.90
2202;DHT22;1107;48.654;9.250;2023-03-15T14:41:29;14.30;99.90
2202;DHT22;1107;48.654;9.250;2023-03-15T14:43:58;15.40;99.90
2202;DHT22;1107;48.654;9.250;2023-03-15T14:46:25;14.40;99.90
2202;DHT22;1107;48.654;9.250;2023-03-15T14:48:52;13.40;99.90
2202;DHT22;1107;48.654;9.250;2023-03-15T14:51:22;12.60;99.90
2202;DHT22;1107;48.654;9.250;2023-03-15T14:53:51;12.00;99.90
2202;DHT22;1107;48.654;9.250;2023-03-15T14:56:20;11.60;99.90
2202;DHT22;1107;48.654;9.250;2023-03-15T14:58:48;11.10;99.90
2202;DHT22;1107;48.654;9.250;2023-03-15T15:01:20;10.50;99.90
2202;DHT22;1107;48.654;9.250;2023-03-15T15:03:51;10.10;99.90
2202;DHT22;1107;48.654;9.250;2023-03-15T15:06:19;9.80;99.90
2202;DHT22;1107;48.654;9.250;2023-03-15T15:08:53;9.50;99.90
2202;DHT22;1107;48.654;9.250;2023-03-15T15:11:20;9.20;99.90
2202;DHT22;1107;48.654;9.250;2023-03-15T15:13:47;8.90;99.90
2202;DHT22;1107;48.654;9.250;2023-03-15T15:16:14;8.60;99.90
2202;DHT22;1107;48.654;9.250;2023-03-15T15:18:41;8.30;99.90
2202;DHT22;1107;48.654;9.250;2023-03-15T15:21:12;8.00;99.90
2202;DHT22;1107;48.654;9.250;2023-03-15T15:23:40;7.80;99.90
2202;DHT22;1107;48.654;9.250;2023-03-15T15:26:11;7.60;99.90
2202;DHT22;1107;48.654;9.250;2023-03-15T15:28:39;7.50;99.90
2202;DHT22;1107;48.654;9.250;2023-03-15T15:31:09;7.20;99.90
2202;DHT22;1107;48.654;9.250;2023-03-15T15:33:36;7.10;99.90
2202;DHT22;1107;48.654;9.250;2023-03-15T15:36:05;7.00;99.90
2202;DHT22;1107;48.654;9.250;2023-03-15T15:38:32;6.80;1.00
2202;DHT22;1107;48.654;9.250;2023-03-15T15:41:02;6.70;1.00
2202;DHT22;1107;48.654;9.250;2023-03-15T15:43:30;6.50;1.00
2202;DHT22;1107;48.654;9.250;2023-03-15T15:45:57;6.20;99.90
2202;DHT22;1107;48.654;9.250;2023-03-15T15:48:24;6.10;1.00
2202;DHT22;1107;48.654;9.250;2023-03-15T15:50:50;6.00;1.00
2202;DHT22;1107;48.654;9.250;2023-03-15T15:53:17;5.90;1.00
2202;DHT22;1107;48.654;9.250;2023-03-15T15:55:44;5.80;99.90
2202;DHT22;1107;48.654;9.250;2023-03-15T15:58:11;5.90;99.90
2202;DHT22;1107;48.654;9.250;2023-03-15T16:00:39;5.90;99.90
2202;DHT22;1107;48.654;9.250;2023-03-15T16:03:09;6.00;99.90
2202;DHT22;1107;48.654;9.250;2023-03-15T16:05:39;6.00;99.90
2202;DHT22;1107;48.654;9.250;2023-03-15T16:08:06;6.10;99.90
2202;DHT22;1107;48.654;9.250;2023-03-15T16:10:36;6.10;99.90
2202;DHT22;1107;48.654;9.250;2023-03-15T16:13:03;6.10;1.00
2202;DHT22;1107;48.654;9.250;2023-03-15T16:15:29;6.10;1.00
2202;DHT22;1107;48.654;9.250;2023-03-15T16:17:58;6.20;1.00
2202;DHT22;1107;48.654;9.250;2023-03-15T16:20:24;6.20;1.00
2202;DHT22;1107;48.654;9.250;2023-03-15T16:22:54;6.20;1.00
2202;DHT22;1107;48.654;9.250;2023-03-15T16:25:24;6.30;1.00
2202;DHT22;1107;48.654;9.250;2023-03-15T16:27:52;6.20;1.00
2202;DHT22;1107;48.654;9.250;2023-03-15T16:30:19;6.10;1.00
2202;DHT22;1107;48.654;9.250;2023-03-15T16:32:46;6.10;1.00
2202;DHT22;1107;48.654;9.250;2023-03-15T16:35:15;6.10;1.00
2202;DHT22;1107;48.654;9.250;2023-03-15T16:37:42;6.00;99.90
2202;DHT22;1107;48.654;9.250;2023-03-15T16:40:12;6.00;99.90
2202;DHT22;1107;48.654;9.250;2023-03-15T16:42:40;5.90;1.00
2202;DHT22;1107;48.654;9.250;2023-03-15T16:45:09;5.80;99.90
2202;DHT22;1107;48.654;9.250;2023-03-15T16:47:37;5.70;1.00
2202;DHT22;1107;48.654;9.250;2023-03-15T16:50:04;5.70;99.90